createdAt,value
2023-04-27T00:02:25.785Z,14.85
2023-04-27T00:04:54.028Z,14.88
2023-04-27T00:07:22.219Z,14.81
2023-04-27T00:09:49.927Z,14.78
2023-04-27T00:12:17.801Z,14.81
2023-04-27T00:14:46.134Z,14.86
2023-04-27T00:17:13.682Z,14.88
2023-04-27T00:19:42.202Z,14.86
2023-04-27T00:22:09.815Z,14.82
2023-04-27T00:24:37.630Z,14.84
2023-04-27T00:27:06.061Z,14.78
2023-04-27T00:29:34.432Z,14.79
2023-04-27T00:32:02.280Z,14.81
2023-04-27T00:34:30.155Z,14.72
2023-04-27T00:36:57.768Z,14.80
2023-04-27T00:39:25.548Z,14.69
2023-04-27T00:41:53.627Z,14.73
2023-04-27T00:44:28.004Z,14.66
2023-04-27T00:46:56.666Z,14.57
2023-04-27T00:49:24.294Z,14.63
2023-04-27T00:51:51.977Z,14.60
2023-04-27T00:54:21.208Z,14.50
2023-04-27T00:56:52.764Z,14.57
2023-04-27T00:59:20.857Z,14.63
2023-04-27T01:01:48.804Z,14.66
2023-04-27T01:04:18.153Z,14.63
2023-04-27T01:06:46.425Z,14.62
2023-04-27T01:09:14.493Z,14.67
2023-04-27T01:11:42.924Z,14.67
2023-04-27T01:14:10.892Z,14.63
2023-04-27T01:16:39.192Z,14.65
2023-04-27T01:19:08.351Z,14.62
2023-04-27T01:21:36.073Z,14.59
2023-04-27T01:24:07.550Z,14.56
2023-04-27T01:26:38.762Z,14.55
2023-04-27T01:29:06.676Z,14.54
2023-04-27T01:31:34.672Z,14.47
2023-04-27T01:34:02.431Z,14.46
2023-04-27T01:36:32.521Z,14.44
2023-04-27T01:39:00.265Z,14.44
2023-04-27T01:41:28.432Z,14.44
2023-04-27T01:43:56.580Z,14.41
2023-04-27T01:46:24.436Z,14.40
2023-04-27T01:48:52.220Z,14.35
2023-04-27T01:51:20.216Z,14.38
2023-04-27T01:53:47.958Z,14.35
2023-04-27T01:56:17.429Z,14.30
2023-04-27T01:58:46.432Z,14.24
2023-04-27T02:01:14.804Z,14.10
2023-04-27T02:03:42.727Z,14.10
2023-04-27T02:06:10.563Z,14.23
2023-04-27T02:08:38.287Z,14.29
2023-04-27T02:11:09.479Z,14.29
2023-04-27T02:13:37.360Z,14.24
2023-04-27T02:16:05.618Z,14.22
2023-04-27T02:18:34.028Z,14.21
2023-04-27T02:21:02.057Z,14.26
2023-04-27T02:23:29.767Z,14.30
2023-04-27T02:25:57.488Z,14.36
2023-04-27T02:28:25.401Z,14.44
2023-04-27T02:30:54.877Z,14.42
2023-04-27T02:33:22.767Z,14.50
2023-04-27T02:35:51.263Z,14.31
2023-04-27T02:38:19.002Z,14.39
2023-04-27T02:40:47.077Z,14.50
2023-04-27T02:43:14.699Z,14.61
2023-04-27T02:45:42.452Z,14.72
2023-04-27T02:48:10.767Z,14.66
2023-04-27T02:50:43.641Z,14.44
2023-04-27T02:53:11.748Z,14.63
2023-04-27T02:55:39.535Z,14.57
2023-04-27T02:58:07.701Z,14.57
2023-04-27T03:00:35.332Z,14.65
2023-04-27T03:03:03.261Z,14.77
2023-04-27T03:05:32.057Z,14.59
2023-04-27T03:08:00.338Z,14.76
2023-04-27T03:10:28.387Z,14.92
2023-04-27T03:12:56.109Z,14.94
2023-04-27T03:15:24.073Z,14.96
2023-04-27T03:17:51.987Z,14.98
2023-04-27T03:20:20.442Z,14.98
2023-04-27T03:22:48.165Z,14.87
2023-04-27T03:25:15.981Z,14.69
2023-04-27T03:27:43.787Z,14.70
2023-04-27T03:30:13.725Z,14.66
2023-04-27T03:32:42.268Z,14.41
2023-04-27T03:35:10.466Z,14.38
2023-04-27T03:37:39.371Z,14.26
2023-04-27T03:40:10.055Z,14.38
2023-04-27T03:42:38.549Z,14.35
2023-04-27T03:45:07.457Z,14.36
2023-04-27T03:47:36.863Z,14.58
2023-04-27T03:50:04.867Z,14.87
2023-04-27T03:52:33.475Z,14.97
2023-04-27T03:55:01.481Z,14.98
2023-04-27T03:57:29.381Z,15.07
2023-04-27T03:59:57.989Z,14.81
2023-04-27T04:02:26.491Z,14.99
2023-04-27T04:04:54.791Z,15.10
2023-04-27T04:07:23.164Z,15.17
2023-04-27T04:09:51.374Z,15.20
2023-04-27T04:12:19.357Z,15.22
2023-04-27T04:14:49.191Z,15.25
2023-04-27T04:17:17.352Z,15.12
2023-04-27T04:19:45.191Z,15.16
2023-04-27T04:22:13.337Z,14.99
2023-04-27T04:24:41.300Z,15.21
2023-04-27T04:27:09.286Z,15.09
2023-04-27T04:29:37.066Z,15.01
2023-04-27T04:32:05.580Z,15.20
2023-04-27T04:34:33.687Z,15.03
2023-04-27T04:37:02.308Z,15.42
2023-04-27T04:39:31.997Z,15.52
2023-04-27T04:41:59.906Z,15.34
2023-04-27T04:44:30.457Z,15.52
2023-04-27T04:46:58.297Z,15.57
2023-04-27T04:49:27.248Z,15.73
2023-04-27T04:51:55.243Z,15.75
2023-04-27T04:54:23.318Z,15.89
2023-04-27T04:56:51.206Z,16.03
2023-04-27T04:59:19.198Z,15.78
2023-04-27T05:01:46.799Z,15.88
2023-04-27T05:04:14.870Z,16.05
2023-04-27T05:06:42.867Z,15.88
2023-04-27T05:09:11.018Z,15.94
2023-04-27T05:11:38.831Z,15.95
2023-04-27T05:14:06.571Z,15.90
2023-04-27T05:16:34.707Z,15.99
2023-04-27T05:19:02.435Z,16.01
2023-04-27T05:21:30.067Z,16.06
2023-04-27T05:23:57.548Z,16.12
2023-04-27T05:26:25.585Z,16.05
2023-04-27T05:28:53.356Z,16.19
2023-04-27T05:31:21.258Z,16.24
2023-04-27T05:33:49.275Z,16.27
2023-04-27T05:36:17.022Z,16.36
2023-04-27T05:38:44.980Z,16.19
2023-04-27T05:41:12.716Z,16.44
2023-04-27T05:43:41.040Z,16.35
2023-04-27T05:46:09.063Z,16.43
2023-04-27T05:48:36.863Z,16.36
2023-04-27T05:51:04.793Z,16.86
2023-04-27T05:53:33.693Z,17.23
2023-04-27T05:56:01.640Z,17.06
2023-04-27T05:58:29.665Z,17.01
2023-04-27T06:00:57.759Z,16.71
2023-04-27T06:03:26.377Z,16.85
2023-04-27T06:05:59.318Z,16.88
2023-04-27T06:08:27.889Z,16.99
2023-04-27T06:10:55.775Z,16.92
2023-04-27T06:13:24.131Z,17.29
2023-04-27T06:15:52.002Z,17.50
2023-04-27T06:18:19.824Z,17.24
2023-04-27T06:20:50.115Z,17.20
2023-04-27T06:23:18.620Z,17.44
2023-04-27T06:25:46.845Z,17.37
2023-04-27T06:28:14.559Z,17.61
2023-04-27T06:30:42.235Z,17.86
2023-04-27T06:33:10.734Z,17.88
2023-04-27T06:35:39.224Z,17.81
2023-04-27T06:38:08.043Z,18.03
2023-04-27T06:40:36.524Z,17.99
2023-04-27T06:43:05.404Z,17.99
2023-04-27T06:45:33.121Z,18.11
2023-04-27T06:48:01.016Z,17.42
2023-04-27T06:50:29.670Z,17.92
2023-04-27T06:52:58.164Z,18.42
2023-04-27T06:55:26.730Z,18.38
2023-04-27T06:57:54.868Z,18.12
2023-04-27T07:00:22.546Z,18.53
2023-04-27T07:02:50.473Z,18.61
2023-04-27T07:05:18.549Z,18.40
2023-04-27T07:07:46.407Z,18.46
2023-04-27T07:10:14.219Z,19.14
2023-04-27T07:12:42.628Z,19.25
2023-04-27T07:15:10.776Z,18.89
2023-04-27T07:17:38.902Z,18.83
2023-04-27T07:20:07.712Z,18.61
2023-04-27T07:22:35.859Z,18.78
2023-04-27T07:25:04.721Z,18.90
2023-04-27T07:27:33.224Z,19.47
2023-04-27T07:30:01.101Z,19.39
2023-04-27T07:32:29.339Z,19.40
2023-04-27T07:34:57.008Z,19.58
2023-04-27T07:37:24.929Z,19.19
2023-04-27T07:39:53.371Z,19.20
2023-04-27T07:42:22.703Z,19.38
2023-04-27T07:44:50.620Z,19.67
2023-04-27T07:47:18.925Z,20.21
2023-04-27T07:49:47.210Z,20.42
2023-04-27T07:52:16.152Z,20.19
2023-04-27T07:54:44.123Z,20.26
2023-04-27T07:57:12.439Z,20.51
2023-04-27T07:59:40.116Z,20.57
2023-04-27T08:02:18.596Z,20.29
2023-04-27T08:04:48.756Z,20.59
2023-04-27T08:07:17.818Z,20.36
2023-04-27T08:09:46.016Z,20.11
2023-04-27T08:12:14.081Z,20.62
2023-04-27T08:14:42.146Z,20.80
2023-04-27T08:17:12.385Z,20.77
2023-04-27T08:19:41.371Z,20.64
2023-04-27T08:22:09.044Z,20.65
2023-04-27T08:24:38.277Z,20.80
2023-04-27T08:27:06.493Z,20.77
2023-04-27T08:29:34.595Z,20.77
2023-04-27T08:32:03.271Z,21.07
2023-04-27T08:34:31.267Z,21.19
2023-04-27T08:36:59.249Z,20.87
2023-04-27T08:39:27.264Z,21.07
2023-04-27T08:41:55.111Z,21.01
2023-04-27T08:44:23.029Z,21.15
2023-04-27T08:46:51.551Z,21.58
2023-04-27T08:49:21.092Z,22.10
2023-04-27T08:51:49.217Z,22.49
2023-04-27T08:54:17.337Z,22.94
2023-04-27T08:56:45.054Z,22.66
2023-04-27T08:59:17.323Z,23.27
2023-04-27T09:01:49.331Z,23.65
2023-04-27T09:04:18.866Z,23.27
2023-04-27T09:06:46.690Z,23.99
2023-04-27T09:09:24.739Z,24.20
2023-04-27T09:11:52.386Z,24.19
2023-04-27T09:14:21.448Z,24.17
2023-04-27T09:16:57.995Z,24.43
2023-04-27T09:19:30.914Z,24.05
2023-04-27T09:22:09.769Z,23.94
2023-04-27T09:24:38.106Z,24.24
2023-04-27T09:27:07.588Z,24.42
2023-04-27T09:29:37.503Z,24.30
2023-04-27T09:32:17.299Z,24.43
2023-04-27T09:34:45.715Z,24.55
2023-04-27T09:37:14.806Z,24.88
2023-04-27T09:39:42.432Z,25.11
2023-04-27T09:42:10.153Z,25.43
2023-04-27T09:44:37.774Z,25.41
2023-04-27T09:47:05.836Z,25.86
2023-04-27T09:49:33.800Z,26.13
2023-04-27T09:52:01.880Z,26.13
2023-04-27T09:54:30.658Z,26.40
2023-04-27T09:57:12.420Z,26.52
2023-04-27T10:00:10.033Z,26.39
2023-04-27T10:03:07.958Z,26.64
2023-04-27T10:06:09.176Z,26.84
2023-04-27T10:08:37.369Z,25.94
2023-04-27T10:11:19.255Z,26.17
2023-04-27T10:13:56.922Z,26.76
2023-04-27T10:16:24.578Z,26.73
2023-04-27T10:18:56.796Z,27.08
2023-04-27T10:21:24.672Z,26.86
2023-04-27T10:23:52.718Z,26.84
2023-04-27T10:26:38.036Z,26.99
2023-04-27T10:29:09.749Z,26.33
2023-04-27T10:31:44.300Z,26.96
2023-04-27T10:34:18.033Z,26.71
2023-04-27T10:36:47.907Z,27.16
2023-04-27T10:39:20.161Z,27.33
2023-04-27T10:41:56.060Z,26.90
2023-04-27T10:44:29.075Z,26.98
2023-04-27T10:47:03.117Z,27.14
2023-04-27T10:49:32.061Z,26.87
2023-04-27T10:52:00.288Z,26.84
2023-04-27T10:54:29.586Z,26.72
2023-04-27T10:57:13.423Z,27.18
2023-04-27T10:59:54.010Z,27.08
2023-04-27T11:02:30.579Z,27.00
2023-04-27T11:04:59.184Z,26.77
2023-04-27T11:07:28.289Z,26.66
2023-04-27T11:09:56.299Z,26.93
2023-04-27T11:12:24.822Z,27.10
2023-04-27T11:15:01.151Z,27.04
2023-04-27T11:17:30.169Z,26.93
2023-04-27T11:19:58.004Z,27.01
2023-04-27T11:22:25.816Z,26.69
2023-04-27T11:24:56.114Z,26.86
2023-04-27T11:27:25.625Z,26.99
2023-04-27T11:29:53.500Z,26.80
2023-04-27T11:32:24.058Z,26.60
2023-04-27T11:34:55.109Z,26.73
2023-04-27T11:37:28.551Z,27.00
2023-04-27T11:40:01.318Z,26.78
2023-04-27T11:42:29.149Z,27.25
2023-04-27T11:45:03.852Z,27.39
2023-04-27T11:47:32.995Z,27.58
2023-04-27T11:50:02.419Z,27.63
2023-04-27T11:52:30.781Z,27.65
2023-04-27T11:54:59.450Z,27.55
2023-04-27T11:57:30.789Z,27.70
2023-04-27T12:00:17.296Z,27.54
2023-04-27T12:02:45.547Z,27.34
2023-04-27T12:05:14.117Z,27.42
2023-04-27T12:07:42.743Z,27.94
2023-04-27T12:10:10.810Z,27.56
2023-04-27T12:12:38.904Z,27.73
2023-04-27T12:15:10.206Z,27.57
2023-04-27T12:17:39.898Z,27.40
2023-04-27T12:20:11.969Z,27.99
2023-04-27T12:22:41.521Z,28.50
2023-04-27T12:25:09.977Z,28.33
2023-04-27T12:27:38.302Z,28.87
2023-04-27T12:30:07.105Z,29.19
2023-04-27T12:32:35.289Z,29.33
2023-04-27T12:35:03.033Z,29.49
2023-04-27T12:37:30.865Z,29.89
2023-04-27T12:39:58.790Z,29.55
2023-04-27T12:42:26.666Z,29.43
2023-04-27T12:44:54.143Z,29.26
2023-04-27T12:47:46.014Z,29.03
2023-04-27T12:50:10.743Z,29.37
2023-04-27T12:52:38.338Z,29.28
2023-04-27T12:55:06.668Z,29.04
2023-04-27T12:57:36.643Z,28.64
2023-04-27T13:00:08.297Z,28.53
2023-04-27T13:02:37.133Z,28.49
2023-04-27T13:05:07.937Z,28.15
2023-04-27T13:07:36.583Z,28.14
2023-04-27T13:10:04.930Z,27.55
2023-04-27T13:12:34.328Z,27.55
2023-04-27T13:15:02.633Z,27.93
2023-04-27T13:17:31.251Z,28.04
2023-04-27T13:19:59.524Z,28.00
2023-04-27T13:22:27.742Z,27.38
2023-04-27T13:24:55.888Z,26.61
2023-04-27T13:27:25.495Z,26.90
2023-04-27T13:29:53.081Z,27.16
2023-04-27T13:32:20.861Z,26.83
2023-04-27T13:34:48.304Z,26.53
2023-04-27T13:37:16.631Z,26.28
2023-04-27T13:39:44.138Z,26.38
2023-04-27T13:42:12.709Z,27.01
2023-04-27T13:44:40.360Z,26.47
2023-04-27T13:47:08.298Z,26.64
2023-04-27T13:49:36.289Z,26.62
2023-04-27T13:52:03.853Z,26.52
2023-04-27T13:54:31.874Z,26.17
2023-04-27T13:57:00.065Z,25.90
2023-04-27T13:59:27.767Z,25.88
2023-04-27T14:01:55.490Z,25.70
2023-04-27T14:04:23.307Z,25.68
2023-04-27T14:06:51.298Z,25.54
2023-04-27T14:09:19.494Z,25.69
2023-04-27T14:11:56.463Z,25.57
2023-04-27T14:14:24.845Z,25.37
2023-04-27T14:16:53.640Z,25.33
2023-04-27T14:19:22.166Z,25.17
2023-04-27T14:21:50.273Z,25.04
2023-04-27T14:24:18.041Z,25.02
2023-04-27T14:26:47.832Z,24.55
2023-04-27T14:29:15.756Z,24.84
2023-04-27T14:31:43.904Z,24.65
2023-04-27T14:34:12.115Z,24.75
2023-04-27T14:36:41.123Z,24.47
2023-04-27T14:39:09.710Z,24.34
2023-04-27T14:41:39.545Z,24.13
2023-04-27T14:44:08.589Z,24.05
2023-04-27T14:46:37.153Z,23.96
2023-04-27T14:49:04.984Z,23.79
2023-04-27T14:51:33.374Z,23.64
2023-04-27T14:54:01.342Z,23.80
2023-04-27T14:56:29.173Z,23.61
2023-04-27T14:58:56.774Z,23.31
2023-04-27T15:01:24.632Z,23.35
2023-04-27T15:03:53.340Z,23.26
2023-04-27T15:06:22.458Z,23.15
2023-04-27T15:08:50.055Z,23.17
2023-04-27T15:11:17.859Z,23.26
2023-04-27T15:13:46.512Z,23.17
2023-04-27T15:16:15.717Z,23.20
2023-04-27T15:18:43.317Z,22.91
2023-04-27T15:21:11.295Z,22.91
2023-04-27T15:23:38.908Z,22.58
2023-04-27T15:26:06.598Z,22.38
2023-04-27T15:28:34.948Z,22.59
2023-04-27T15:31:02.467Z,22.36
2023-04-27T15:33:33.369Z,22.28
2023-04-27T15:36:01.114Z,22.33
2023-04-27T15:38:28.881Z,22.22
2023-04-27T15:40:56.774Z,22.19
2023-04-27T15:43:25.523Z,21.90
2023-04-27T15:45:54.160Z,21.83
2023-04-27T15:48:21.850Z,21.69
2023-04-27T15:50:49.686Z,21.41
2023-04-27T15:53:17.716Z,21.51
2023-04-27T15:55:45.176Z,21.44
2023-04-27T15:58:12.643Z,21.50
2023-04-27T16:00:40.197Z,21.14
2023-04-27T16:03:11.363Z,21.43
2023-04-27T16:05:38.986Z,21.19
2023-04-27T16:08:06.522Z,21.04
2023-04-27T16:10:34.470Z,21.05
2023-04-27T16:13:02.125Z,21.03
2023-04-27T16:15:29.722Z,21.09
2023-04-27T16:17:57.196Z,21.08
2023-04-27T16:20:28.056Z,20.90
2023-04-27T16:22:56.789Z,21.00
2023-04-27T16:25:24.801Z,20.88
2023-04-27T16:27:52.600Z,20.41
2023-04-27T16:30:20.361Z,20.45
2023-04-27T16:32:48.442Z,20.27
2023-04-27T16:35:16.234Z,20.03
2023-04-27T16:37:44.010Z,20.09
2023-04-27T16:40:12.202Z,20.01
2023-04-27T16:42:42.306Z,19.65
2023-04-27T16:45:11.029Z,19.80
2023-04-27T16:47:39.253Z,19.38
2023-04-27T16:50:07.326Z,19.39
2023-04-27T16:52:35.613Z,19.25
2023-04-27T16:55:03.523Z,19.35
2023-04-27T16:57:31.885Z,19.26
2023-04-27T17:00:01.298Z,19.21
2023-04-27T17:02:29.787Z,19.16
2023-04-27T17:04:59.810Z,19.12
2023-04-27T17:07:33.267Z,18.89
2023-04-27T17:10:03.777Z,18.77
2023-04-27T17:12:32.242Z,18.90
2023-04-27T17:14:59.972Z,18.53
2023-04-27T17:17:32.745Z,18.65
2023-04-27T17:20:01.189Z,18.24
2023-04-27T17:22:30.326Z,18.32
2023-04-27T17:24:58.297Z,18.55
2023-04-27T17:27:26.069Z,18.48
2023-04-27T17:29:54.452Z,18.02
2023-04-27T17:32:22.916Z,18.02
2023-04-27T17:34:50.730Z,17.96
2023-04-27T17:37:18.536Z,17.80
2023-04-27T17:39:48.208Z,17.57
2023-04-27T17:42:16.325Z,17.23
2023-04-27T17:44:43.983Z,17.13
2023-04-27T17:47:12.688Z,17.42
2023-04-27T17:49:41.825Z,17.29
2023-04-27T17:52:10.046Z,17.04
2023-04-27T17:54:38.265Z,17.05
2023-04-27T17:57:06.318Z,17.02
2023-04-27T17:59:34.788Z,16.89
2023-04-27T18:02:03.189Z,16.76
2023-04-27T18:04:31.369Z,16.93
2023-04-27T18:06:59.883Z,17.04
2023-04-27T18:09:30.098Z,16.96
2023-04-27T18:11:59.989Z,17.31
2023-04-27T18:14:27.943Z,17.31
2023-04-27T18:16:55.868Z,17.43
2023-04-27T18:19:23.769Z,17.52
2023-04-27T18:21:51.840Z,17.60
2023-04-27T18:24:20.000Z,17.67
2023-04-27T18:26:47.863Z,17.77
2023-04-27T18:29:16.096Z,17.71
2023-04-27T18:31:43.945Z,17.80
2023-04-27T18:34:12.660Z,17.83
2023-04-27T18:36:40.420Z,17.54
2023-04-27T18:39:08.140Z,17.02
2023-04-27T18:41:37.053Z,16.29
2023-04-27T18:44:06.018Z,15.81
2023-04-27T18:46:35.134Z,15.75
2023-04-27T18:49:03.336Z,15.78
2023-04-27T18:51:32.451Z,16.08
2023-04-27T18:54:01.000Z,15.69
2023-04-27T18:56:29.268Z,15.66
2023-04-27T18:58:58.402Z,15.59
2023-04-27T19:01:26.880Z,15.49
2023-04-27T19:03:55.357Z,15.48
2023-04-27T19:06:23.257Z,15.58
2023-04-27T19:08:51.896Z,15.33
2023-04-27T19:11:22.537Z,15.50
2023-04-27T19:13:50.458Z,15.45
2023-04-27T19:16:18.818Z,15.31
2023-04-27T19:18:46.654Z,15.26
2023-04-27T19:21:15.035Z,15.32
2023-04-27T19:23:44.899Z,15.32
2023-04-27T19:26:14.340Z,15.22
2023-04-27T19:28:42.195Z,15.16
2023-04-27T19:31:10.611Z,15.18
2023-04-27T19:33:38.392Z,15.17
2023-04-27T19:36:06.608Z,15.27
2023-04-27T19:38:34.809Z,15.41
2023-04-27T19:41:04.615Z,15.30
2023-04-27T19:43:34.051Z,15.30
2023-04-27T19:46:02.372Z,15.60
2023-04-27T19:48:31.090Z,15.65
2023-04-27T19:50:58.814Z,15.60
2023-04-27T19:53:27.840Z,15.82
2023-04-27T19:55:55.651Z,15.74
2023-04-27T19:58:23.806Z,15.80
2023-04-27T20:00:52.690Z,15.75
2023-04-27T20:03:22.279Z,15.83
2023-04-27T20:05:51.856Z,15.53
2023-04-27T20:08:20.172Z,15.34
2023-04-27T20:10:48.481Z,15.24
2023-04-27T20:13:17.365Z,15.41
2023-04-27T20:15:45.452Z,15.24
2023-04-27T20:18:13.414Z,15.33
2023-04-27T20:20:42.254Z,15.26
2023-04-27T20:23:10.203Z,14.92
2023-04-27T20:25:38.574Z,14.96
2023-04-27T20:28:06.411Z,15.18
2023-04-27T20:30:34.782Z,15.06
2023-04-27T20:33:03.926Z,15.00
2023-04-27T20:35:33.055Z,15.17
2023-04-27T20:38:02.165Z,15.08
2023-04-27T20:40:30.439Z,15.03
2023-04-27T20:42:58.214Z,15.05
2023-04-27T20:45:26.070Z,15.01
2023-04-27T20:47:54.177Z,14.68
2023-04-27T20:50:21.950Z,14.93
2023-04-27T20:52:50.163Z,14.99
2023-04-27T20:55:18.343Z,14.79
2023-04-27T20:57:46.661Z,14.74
2023-04-27T21:00:16.138Z,14.64
2023-04-27T21:02:44.573Z,14.73
2023-04-27T21:05:12.593Z,14.85
2023-04-27T21:07:41.386Z,14.68
2023-04-27T21:10:10.037Z,14.81
2023-04-27T21:12:38.439Z,14.77
2023-04-27T21:15:07.025Z,14.90
2023-04-27T21:17:35.445Z,14.72
2023-04-27T21:20:03.943Z,14.63
2023-04-27T21:22:32.663Z,14.54
2023-04-27T21:25:00.394Z,14.47
2023-04-27T21:27:28.937Z,14.41
2023-04-27T21:29:57.243Z,14.40
2023-04-27T21:32:24.889Z,14.41
2023-04-27T21:34:52.882Z,14.37
2023-04-27T21:37:20.575Z,14.73
2023-04-27T21:39:48.143Z,14.72
2023-04-27T21:42:16.775Z,14.67
2023-04-27T21:44:44.744Z,14.53
2023-04-27T21:47:13.070Z,14.54
2023-04-27T21:49:40.749Z,14.48
2023-04-27T21:52:08.468Z,14.61
2023-04-27T21:54:36.741Z,14.58
2023-04-27T21:57:04.489Z,14.63
2023-04-27T21:59:32.325Z,14.47
2023-04-27T22:02:00.405Z,14.65
2023-04-27T22:04:29.129Z,14.78
2023-04-27T22:06:57.271Z,14.77
2023-04-27T22:09:27.185Z,14.74
2023-04-27T22:11:55.461Z,14.85
2023-04-27T22:14:23.535Z,14.88
2023-04-27T22:16:52.231Z,14.76
2023-04-27T22:19:20.386Z,14.95
2023-04-27T22:21:48.144Z,14.83
2023-04-27T22:24:16.284Z,15.08
2023-04-27T22:26:44.117Z,15.07
2023-04-27T22:29:12.353Z,15.04
2023-04-27T22:31:40.576Z,14.88
2023-04-27T22:34:08.460Z,14.87
2023-04-27T22:36:37.996Z,14.97
2023-04-27T22:39:05.932Z,15.18
2023-04-27T22:41:33.938Z,15.24
2023-04-27T22:44:01.637Z,15.30
2023-04-27T22:46:30.499Z,14.97
2023-04-27T22:49:01.668Z,14.94
2023-04-27T22:51:29.504Z,14.84
2023-04-27T22:53:57.227Z,15.01
2023-04-27T22:56:25.105Z,14.87
2023-04-27T22:58:52.826Z,15.02
2023-04-27T23:01:20.778Z,15.03
2023-04-27T23:03:48.691Z,15.03
2023-04-27T23:06:16.621Z,14.95
2023-04-27T23:08:47.326Z,14.72
2023-04-27T23:11:15.671Z,14.73
2023-04-27T23:13:44.779Z,14.97
2023-04-27T23:16:15.012Z,15.05
2023-04-27T23:18:42.892Z,15.00
2023-04-27T23:21:11.879Z,15.19
2023-04-27T23:23:40.023Z,14.94
2023-04-27T23:26:15.081Z,14.94
2023-04-27T23:28:43.436Z,15.00
2023-04-27T23:31:11.622Z,14.84
2023-04-27T23:33:39.563Z,15.02
2023-04-27T23:36:07.440Z,15.08
2023-04-27T23:38:35.138Z,15.15
2023-04-27T23:41:02.803Z,15.23
2023-04-27T23:43:30.898Z,15.33
2023-04-27T23:45:58.670Z,15.37
2023-04-27T23:48:26.548Z,15.45
2023-04-27T23:51:01.775Z,15.54
2023-04-27T23:53:30.231Z,15.61
2023-04-27T23:55:57.884Z,15.58
2023-04-27T23:58:26.470Z,15.48
